| Time | Avg. Air Temp | Dew Point | Avg. Rel Humidity | Avg. 2 Min Wind Speed | Max Gust Velocity | MGV Time | MGV Direction | Avg. Spot Wind Velocity |
|---|---|---|---|---|---|---|---|---|
| 2026-05-06 16:35:00 | 8° C | -0° C | 57% | 16 km/h | 28 km/h | 16:33:00 | SW | 18 km/h |
| 15:35:00 | 7° C | -1° C | 57% | 9 km/h | 13 km/h | 15:32:00 | SW | 11 km/h |
| 14:35:00 | 6° C | -0° C | 62% | 13 km/h | 18 km/h | 14:32:00 | W | 13 km/h |
| 13:35:00 | 6° C | -0° C | 63% | 12 km/h | 19 km/h | 13:32:00 | SW | 14 km/h |
| 12:35:00 | 6° C | -1° C | 59% | 11 km/h | 14 km/h | 12:33:00 | SW | 10 km/h |
| 11:35:00 | 6° C | -2° C | 56% | 13 km/h | 14 km/h | 11:31:00 | SW | 12 km/h |
| 10:35:00 | 5° C | -4° C | 51% | 9 km/h | 11 km/h | 10:33:00 | S | 9 km/h |
| 09:35:00 | 5° C | -5° C | 48% | 8 km/h | 11 km/h | 09:32:00 | S | 9 km/h |
| 08:35:00 | 6° C | -4° C | 52% | 8 km/h | 11 km/h | 08:31:00 | SW | 9 km/h |
| 07:35:00 | 5° C | -4° C | 51% | 22 km/h | 24 km/h | 07:32:00 | W | 22 km/h |
| 06:35:00 | 5° C | -5° C | 45% | 18 km/h | 25 km/h | 06:33:00 | W | 20 km/h |
| 05:35:00 | 6° C | -6° C | 44% | 26 km/h | 29 km/h | 05:31:00 | W | 27 km/h |
| 04:35:00 | 6° C | -5° C | 44% | 28 km/h | 31 km/h | 04:31:00 | W | 28 km/h |
| 03:35:00 | 6° C | -5° C | 43% | 28 km/h | 29 km/h | 03:35:00 | W | 28 km/h |
| 02:35:00 | 7° C | -6° C | 40% | 22 km/h | 24 km/h | 02:33:00 | SW | 22 km/h |
| 01:35:00 | 6° C | -7° C | 39% | 20 km/h | 23 km/h | 01:34:00 | 19 km/h | |
| 00:35:00 | 6° C | -7° C | 38% | 17 km/h | 19 km/h | 00:35:00 | W | 17 km/h |
| 23:35:00 | 6° C | -7° C | 38% | 13 km/h | 14 km/h | 23:33:00 | W | 12 km/h |
| 22:35:00 | 6° C | -8° C | 37% | 9 km/h | 9 km/h | 22:33:00 | NW | 9 km/h |
| 21:35:00 | 6° C | -8° C | 37% | 11 km/h | 11 km/h | 21:33:00 | NE | 11 km/h |
| 20:35:00 | 6° C | -8° C | 37% | 8 km/h | 12 km/h | 20:31:00 | N | 9 km/h |
| 19:35:00 | 5° C | -8° C | 39% | 8 km/h | 16 km/h | 19:35:00 | N | 7 km/h |
| 18:35:00 | 5° C | -7° C | 39% | 3 km/h | 15 km/h | 18:31:00 | N | 5 km/h |
| 17:35:00 | 5° C | -8° C | 37% | 5 km/h | 21 km/h | 17:31:00 | N | 4 km/h |
Subpeak Weather
| Time | Avg. Air Temp | Dew Point | Avg. Rel Humidity | Avg. 2 Min Wind Speed | Max Gust Velocity | MGV Time | MGV Direction | Avg. Spot Wind Velocity |
|---|---|---|---|---|---|---|---|---|
| 2026-05-06 16:35:00 | 8° C | -0° C | 57% | 16 km/h | 28 km/h | 16:33:00 | SW | 18 km/h |
| 16:30:00 | 8° C | -0° C | 57% | 16 km/h | 24 km/h | 16:30:00 | SW | 14 km/h |
| 16:25:00 | 8° C | -1° C | 57% | 20 km/h | 25 km/h | 16:21:00 | SW | 20 km/h |
| 16:20:00 | 7° C | -0° C | 58% | 21 km/h | 29 km/h | 16:18:00 | W | 21 km/h |
| 16:15:00 | 8° C | 0° C | 59% | 15 km/h | 22 km/h | 16:12:00 | NW | 18 km/h |
| 16:10:00 | 7° C | -0° C | 59% | 19 km/h | 22 km/h | 16:10:00 | W | 17 km/h |
| 16:05:00 | 7° C | -0° C | 58% | 16 km/h | 22 km/h | 16:01:00 | W | 18 km/h |
| 16:00:00 | 7° C | -0° C | 57% | 18 km/h | 27 km/h | 15:58:00 | W | 19 km/h |
| 15:55:00 | 8° C | -1° C | 56% | 13 km/h | 26 km/h | 15:52:00 | W | 15 km/h |
| 15:50:00 | 8° C | -0° C | 57% | 13 km/h | 17 km/h | 15:46:00 | SW | 10 km/h |
| 15:45:00 | 8° C | -0° C | 57% | 14 km/h | 19 km/h | 15:45:00 | SW | 13 km/h |
| 15:40:00 | 8° C | -0° C | 57% | 8 km/h | 14 km/h | 15:37:00 | W | 10 km/h |
| 15:35:00 | 7° C | -1° C | 57% | 9 km/h | 13 km/h | 15:32:00 | SW | 11 km/h |




